Topisaw, Mississippi
Current Conditions -  °F | °C
As of 10:53 PM on Tuesday 25 Nov 2014 (Local Time) from KMCB Reporting Station
Clear Clear  
Wind Chill: 38°   Ceiling: Unl
Heat Index: 38°   Visibility: 10mi
Dew Point: 30°   Wind: 3mph
Humidity: 73%   Direction: 310°NW
Pressure: 30.21"   Gusts: NA
Location:  31.2993°N, 90.4958°W
Report Text: KMCB 260453Z AUTO 31003KT 10SM CLR 03/M01 A3021 RMK AO2 SLP230 T00331011
Loading
Personal Weather Stations






























Interactive Weather Map New forecast layout! Learn more

10-Day Weather Forecast

Advertisements
Track Severe Weather on mobile